KMLJ

Baldwin County Airport

Milledgeville, Georgia, USA
METAR KMLJ 161555Z AUTO 32009KT 290V350 10SM CLR 08/00 A3019 RMK AO2
Observed Flight Rules
Nov-16 @ 15:55 UTC (23 minutes ago) Visual Flight Rules
Wind Visibility Clouds
320° at 9 knots 10 miles
  • Clear skies
Temperatures Readings
Current 8°C / 46°F
Dewpoint 0°C / 32°F
Humidity 57%
Altimeter 30.19" Hg
Pressure 1022 hPa
Elevation 117
METAR KMLJ 161555Z AUTO 32009KT 290V350 10SM CLR 08/00 A3019 RMK AO2
Observed Flight Rules
Nov-16 @ 15:55 UTC
(23 minutes ago)
VFR
Wind Visibility
320° at 9 knots 10 miles
Clouds
  • Clear skies
Temperature Dewpoint
8°C / 46°F 0°C / 32°F
Humidity Altimeter Pressure
57% 30.19" Hg 1022 hPa